sensor_id;sensor_type;location;lat;lon;timestamp;P1;durP1;ratioP1;P2;durP2;ratioP2
60416;SDS011;46263;44.726;10.396;2023-03-14T00:01:45;12.07;;;9.02;;
60416;SDS011;46263;44.726;10.396;2023-03-14T00:04:11;17.65;;;8.82;;
60416;SDS011;46263;44.726;10.396;2023-03-14T00:06:36;12.40;;;8.50;;
60416;SDS011;46263;44.726;10.396;2023-03-14T00:09:02;13.23;;;9.10;;
60416;SDS011;46263;44.726;10.396;2023-03-14T00:11:28;11.35;;;8.43;;
60416;SDS011;46263;44.726;10.396;2023-03-14T00:13:54;17.02;;;9.43;;
60416;SDS011;46263;44.726;10.396;2023-03-14T00:16:20;13.93;;;8.93;;
60416;SDS011;46263;44.726;10.396;2023-03-14T00:18:46;15.57;;;9.90;;
60416;SDS011;46263;44.726;10.396;2023-03-14T00:21:12;14.93;;;8.68;;
60416;SDS011;46263;44.726;10.396;2023-03-14T00:23:38;15.13;;;8.80;;
60416;SDS011;46263;44.726;10.396;2023-03-14T00:26:06;14.45;;;7.72;;
60416;SDS011;46263;44.726;10.396;2023-03-14T00:28:34;12.98;;;8.25;;
60416;SDS011;46263;44.726;10.396;2023-03-14T00:31:03;14.05;;;7.57;;
60416;SDS011;46263;44.726;10.396;2023-03-14T00:33:33;12.95;;;7.10;;
60416;SDS011;46263;44.726;10.396;2023-03-14T00:36:00;12.45;;;8.13;;
60416;SDS011;46263;44.726;10.396;2023-03-14T00:38:31;9.05;;;6.68;;
60416;SDS011;46263;44.726;10.396;2023-03-14T00:40:58;12.43;;;7.40;;
60416;SDS011;46263;44.726;10.396;2023-03-14T00:43:24;8.68;;;6.78;;
60416;SDS011;46263;44.726;10.396;2023-03-14T00:45:50;13.35;;;7.15;;
60416;SDS011;46263;44.726;10.396;2023-03-14T00:48:20;12.88;;;7.32;;
60416;SDS011;46263;44.726;10.396;2023-03-14T00:50:46;14.73;;;7.55;;
60416;SDS011;46263;44.726;10.396;2023-03-14T00:53:12;12.60;;;8.25;;
60416;SDS011;46263;44.726;10.396;2023-03-14T00:55:37;16.58;;;9.13;;
60416;SDS011;46263;44.726;10.396;2023-03-14T00:58:04;11.65;;;9.32;;
60416;SDS011;46263;44.726;10.396;2023-03-14T01:00:30;16.75;;;8.52;;
60416;SDS011;46263;44.726;10.396;2023-03-14T01:02:55;14.55;;;9.45;;
60416;SDS011;46263;44.726;10.396;2023-03-14T01:05:21;18.80;;;10.27;;
60416;SDS011;46263;44.726;10.396;2023-03-14T01:07:47;17.45;;;10.48;;
60416;SDS011;46263;44.726;10.396;2023-03-14T01:10:13;16.25;;;11.00;;
60416;SDS011;46263;44.726;10.396;2023-03-14T01:12:39;19.38;;;12.00;;
60416;SDS011;46263;44.726;10.396;2023-03-14T01:15:05;20.48;;;13.02;;
60416;SDS011;46263;44.726;10.396;2023-03-14T01:17:30;18.00;;;11.38;;
60416;SDS011;46263;44.726;10.396;2023-03-14T01:19:56;17.98;;;11.88;;
60416;SDS011;46263;44.726;10.396;2023-03-14T01:22:21;16.27;;;12.07;;
60416;SDS011;46263;44.726;10.396;2023-03-14T01:24:47;20.50;;;13.18;;
60416;SDS011;46263;44.726;10.396;2023-03-14T01:27:12;17.98;;;12.40;;
60416;SDS011;46263;44.726;10.396;2023-03-14T01:29:38;16.60;;;12.50;;
60416;SDS011;46263;44.726;10.396;2023-03-14T01:32:04;17.40;;;12.65;;
60416;SDS011;46263;44.726;10.396;2023-03-14T01:34:29;17.73;;;12.35;;
60416;SDS011;46263;44.726;10.396;2023-03-14T01:36:55;19.40;;;13.35;;
60416;SDS011;46263;44.726;10.396;2023-03-14T01:39:20;14.93;;;10.73;;
60416;SDS011;46263;44.726;10.396;2023-03-14T01:41:45;15.52;;;12.07;;
60416;SDS011;46263;44.726;10.396;2023-03-14T01:44:11;21.45;;;12.35;;
60416;SDS011;46263;44.726;10.396;2023-03-14T01:46:43;18.23;;;12.55;;
60416;SDS011;46263;44.726;10.396;2023-03-14T01:52:02;16.92;;;11.50;;
60416;SDS011;46263;44.726;10.396;2023-03-14T02:00:27;18.00;;;11.45;;
60416;SDS011;46263;44.726;10.396;2023-03-14T02:03:00;14.35;;;12.00;;
60416;SDS011;46263;44.726;10.396;2023-03-14T02:07:59;17.15;;;12.65;;
60416;SDS011;46263;44.726;10.396;2023-03-14T02:10:33;15.75;;;11.27;;
60416;SDS011;46263;44.726;10.396;2023-03-14T02:13:04;18.13;;;12.15;;
60416;SDS011;46263;44.726;10.396;2023-03-14T02:15:31;19.10;;;12.60;;
60416;SDS011;46263;44.726;10.396;2023-03-14T02:17:57;18.77;;;10.65;;
60416;SDS011;46263;44.726;10.396;2023-03-14T02:22:56;17.67;;;11.30;;
60416;SDS011;46263;44.726;10.396;2023-03-14T02:27:50;14.38;;;12.27;;
60416;SDS011;46263;44.726;10.396;2023-03-14T02:32:44;18.67;;;11.75;;
60416;SDS011;46263;44.726;10.396;2023-03-14T02:35:14;17.95;;;11.07;;
60416;SDS011;46263;44.726;10.396;2023-03-14T02:37:45;15.70;;;10.80;;
60416;SDS011;46263;44.726;10.396;2023-03-14T02:40:20;18.05;;;11.63;;
60416;SDS011;46263;44.726;10.396;2023-03-14T02:42:46;15.98;;;11.02;;
60416;SDS011;46263;44.726;10.396;2023-03-14T02:47:37;14.15;;;10.73;;
60416;SDS011;46263;44.726;10.396;2023-03-14T02:50:13;18.30;;;11.40;;
60416;SDS011;46263;44.726;10.396;2023-03-14T02:52:42;16.20;;;12.00;;
60416;SDS011;46263;44.726;10.396;2023-03-14T02:55:08;15.45;;;12.27;;
60416;SDS011;46263;44.726;10.396;2023-03-14T02:57:34;18.75;;;11.95;;
60416;SDS011;46263;44.726;10.396;2023-03-14T03:00:00;19.85;;;12.68;;
60416;SDS011;46263;44.726;10.396;2023-03-14T03:02:26;16.15;;;11.65;;
60416;SDS011;46263;44.726;10.396;2023-03-14T03:04:52;13.57;;;10.35;;
60416;SDS011;46263;44.726;10.396;2023-03-14T03:07:18;18.88;;;11.15;;
60416;SDS011;46263;44.726;10.396;2023-03-14T03:09:44;14.85;;;11.38;;
60416;SDS011;46263;44.726;10.396;2023-03-14T03:12:09;17.88;;;13.23;;
60416;SDS011;46263;44.726;10.396;2023-03-14T03:14:35;13.93;;;10.90;;
60416;SDS011;46263;44.726;10.396;2023-03-14T03:17:02;17.50;;;11.07;;
60416;SDS011;46263;44.726;10.396;2023-03-14T03:19:28;17.73;;;11.20;;
60416;SDS011;46263;44.726;10.396;2023-03-14T03:21:54;13.43;;;10.10;;
60416;SDS011;46263;44.726;10.396;2023-03-14T03:24:19;17.77;;;10.90;;
60416;SDS011;46263;44.726;10.396;2023-03-14T03:26:45;18.23;;;11.70;;
60416;SDS011;46263;44.726;10.396;2023-03-14T03:29:10;15.15;;;11.00;;
60416;SDS011;46263;44.726;10.396;2023-03-14T03:31:36;17.17;;;11.80;;
60416;SDS011;46263;44.726;10.396;2023-03-14T03:34:02;15.48;;;12.98;;
60416;SDS011;46263;44.726;10.396;2023-03-14T03:36:28;16.25;;;11.43;;
60416;SDS011;46263;44.726;10.396;2023-03-14T03:38:54;18.52;;;11.50;;
60416;SDS011;46263;44.726;10.396;2023-03-14T03:41:19;19.10;;;12.00;;
60416;SDS011;46263;44.726;10.396;2023-03-14T03:43:45;14.63;;;10.70;;
60416;SDS011;46263;44.726;10.396;2023-03-14T03:46:10;18.65;;;12.05;;
60416;SDS011;46263;44.726;10.396;2023-03-14T03:48:35;19.60;;;12.75;;
60416;SDS011;46263;44.726;10.396;2023-03-14T03:51:19;18.73;;;13.15;;
60416;SDS011;46263;44.726;10.396;2023-03-14T03:53:45;17.17;;;11.70;;
60416;SDS011;46263;44.726;10.396;2023-03-14T03:56:10;19.83;;;13.10;;
60416;SDS011;46263;44.726;10.396;2023-03-14T03:58:36;19.73;;;13.45;;
60416;SDS011;46263;44.726;10.396;2023-03-14T04:01:03;26.23;;;15.02;;
60416;SDS011;46263;44.726;10.396;2023-03-14T04:03:30;25.25;;;17.48;;
60416;SDS011;46263;44.726;10.396;2023-03-14T04:06:02;28.80;;;19.13;;
60416;SDS011;46263;44.726;10.396;2023-03-14T04:08:32;31.13;;;20.20;;
60416;SDS011;46263;44.726;10.396;2023-03-14T04:10:58;27.65;;;19.38;;
60416;SDS011;46263;44.726;10.396;2023-03-14T04:13:25;30.25;;;19.48;;
60416;SDS011;46263;44.726;10.396;2023-03-14T04:15:51;34.33;;;20.20;;
60416;SDS011;46263;44.726;10.396;2023-03-14T04:18:17;29.70;;;19.60;;
60416;SDS011;46263;44.726;10.396;2023-03-14T04:20:43;30.20;;;17.83;;
60416;SDS011;46263;44.726;10.396;2023-03-14T04:23:09;32.00;;;20.17;;
60416;SDS011;46263;44.726;10.396;2023-03-14T04:25:34;34.22;;;21.88;;
60416;SDS011;46263;44.726;10.396;2023-03-14T04:28:00;28.42;;;17.73;;
60416;SDS011;46263;44.726;10.396;2023-03-14T04:30:26;32.47;;;19.35;;
60416;SDS011;46263;44.726;10.396;2023-03-14T04:32:51;29.08;;;17.88;;
60416;SDS011;46263;44.726;10.396;2023-03-14T04:35:17;30.58;;;18.50;;
60416;SDS011;46263;44.726;10.396;2023-03-14T04:37:42;30.85;;;17.73;;
60416;SDS011;46263;44.726;10.396;2023-03-14T04:40:08;30.35;;;17.95;;
60416;SDS011;46263;44.726;10.396;2023-03-14T04:42:35;30.83;;;18.33;;
60416;SDS011;46263;44.726;10.396;2023-03-14T04:45:00;29.15;;;18.67;;
60416;SDS011;46263;44.726;10.396;2023-03-14T04:47:26;31.98;;;18.98;;
60416;SDS011;46263;44.726;10.396;2023-03-14T04:49:52;32.88;;;19.67;;
60416;SDS011;46263;44.726;10.396;2023-03-14T04:52:17;30.10;;;18.85;;
60416;SDS011;46263;44.726;10.396;2023-03-14T04:54:43;32.47;;;19.65;;
60416;SDS011;46263;44.726;10.396;2023-03-14T04:57:08;29.33;;;19.02;;
60416;SDS011;46263;44.726;10.396;2023-03-14T04:59:34;30.65;;;19.08;;
60416;SDS011;46263;44.726;10.396;2023-03-14T05:01:59;29.85;;;19.73;;
60416;SDS011;46263;44.726;10.396;2023-03-14T05:04:24;36.58;;;21.70;;
60416;SDS011;46263;44.726;10.396;2023-03-14T05:06:50;32.08;;;20.67;;
60416;SDS011;46263;44.726;10.396;2023-03-14T05:09:16;35.40;;;22.38;;
60416;SDS011;46263;44.726;10.396;2023-03-14T05:11:42;35.30;;;22.08;;
60416;SDS011;46263;44.726;10.396;2023-03-14T05:14:07;28.80;;;20.10;;
60416;SDS011;46263;44.726;10.396;2023-03-14T05:16:33;29.52;;;19.45;;
60416;SDS011;46263;44.726;10.396;2023-03-14T05:18:58;30.15;;;20.35;;
60416;SDS011;46263;44.726;10.396;2023-03-14T05:21:24;29.48;;;20.45;;
60416;SDS011;46263;44.726;10.396;2023-03-14T05:23:50;32.50;;;21.27;;
60416;SDS011;46263;44.726;10.396;2023-03-14T05:26:15;30.95;;;20.17;;
60416;SDS011;46263;44.726;10.396;2023-03-14T05:28:41;32.67;;;19.65;;
60416;SDS011;46263;44.726;10.396;2023-03-14T05:31:08;30.15;;;18.48;;
60416;SDS011;46263;44.726;10.396;2023-03-14T05:33:34;32.72;;;19.45;;
60416;SDS011;46263;44.726;10.396;2023-03-14T05:35:59;31.17;;;21.67;;
60416;SDS011;46263;44.726;10.396;2023-03-14T05:38:24;32.42;;;23.33;;
60416;SDS011;46263;44.726;10.396;2023-03-14T05:40:50;34.80;;;22.45;;
60416;SDS011;46263;44.726;10.396;2023-03-14T05:43:15;33.45;;;22.85;;
60416;SDS011;46263;44.726;10.396;2023-03-14T05:45:41;36.08;;;24.00;;
60416;SDS011;46263;44.726;10.396;2023-03-14T05:48:07;32.35;;;23.77;;
60416;SDS011;46263;44.726;10.396;2023-03-14T05:50:33;38.30;;;24.65;;
60416;SDS011;46263;44.726;10.396;2023-03-14T05:52:58;33.83;;;24.40;;
60416;SDS011;46263;44.726;10.396;2023-03-14T05:55:24;32.72;;;25.33;;
60416;SDS011;46263;44.726;10.396;2023-03-14T05:57:50;34.58;;;25.85;;
60416;SDS011;46263;44.726;10.396;2023-03-14T06:00:15;31.42;;;23.73;;
60416;SDS011;46263;44.726;10.396;2023-03-14T06:02:41;32.97;;;23.92;;
60416;SDS011;46263;44.726;10.396;2023-03-14T06:05:07;33.45;;;24.75;;
60416;SDS011;46263;44.726;10.396;2023-03-14T06:07:32;35.92;;;24.50;;
60416;SDS011;46263;44.726;10.396;2023-03-14T06:09:58;36.17;;;25.17;;
60416;SDS011;46263;44.726;10.396;2023-03-14T06:12:24;34.85;;;25.13;;
60416;SDS011;46263;44.726;10.396;2023-03-14T06:14:49;33.60;;;23.17;;
60416;SDS011;46263;44.726;10.396;2023-03-14T06:17:15;36.47;;;23.00;;
60416;SDS011;46263;44.726;10.396;2023-03-14T06:19:40;28.05;;;20.25;;
60416;SDS011;46263;44.726;10.396;2023-03-14T06:22:06;32.25;;;20.10;;
60416;SDS011;46263;44.726;10.396;2023-03-14T06:24:31;32.78;;;20.17;;
60416;SDS011;46263;44.726;10.396;2023-03-14T06:26:57;30.95;;;21.67;;
60416;SDS011;46263;44.726;10.396;2023-03-14T06:29:22;34.80;;;23.45;;
60416;SDS011;46263;44.726;10.396;2023-03-14T06:31:48;30.10;;;21.75;;
60416;SDS011;46263;44.726;10.396;2023-03-14T06:34:13;32.78;;;22.23;;
60416;SDS011;46263;44.726;10.396;2023-03-14T06:36:39;31.73;;;23.27;;
60416;SDS011;46263;44.726;10.396;2023-03-14T06:39:05;31.40;;;20.75;;
60416;SDS011;46263;44.726;10.396;2023-03-14T06:41:30;27.33;;;19.23;;
60416;SDS011;46263;44.726;10.396;2023-03-14T06:43:57;29.00;;;20.63;;
60416;SDS011;46263;44.726;10.396;2023-03-14T06:46:23;29.77;;;20.48;;
60416;SDS011;46263;44.726;10.396;2023-03-14T06:48:48;31.27;;;21.10;;
60416;SDS011;46263;44.726;10.396;2023-03-14T06:51:14;30.65;;;20.55;;
60416;SDS011;46263;44.726;10.396;2023-03-14T06:53:39;30.55;;;21.02;;
60416;SDS011;46263;44.726;10.396;2023-03-14T06:56:05;32.20;;;22.08;;
60416;SDS011;46263;44.726;10.396;2023-03-14T06:58:31;33.78;;;20.33;;
60416;SDS011;46263;44.726;10.396;2023-03-14T07:00:56;31.05;;;21.85;;
60416;SDS011;46263;44.726;10.396;2023-03-14T07:03:22;30.77;;;21.20;;
60416;SDS011;46263;44.726;10.396;2023-03-14T07:05:48;30.38;;;21.17;;
60416;SDS011;46263;44.726;10.396;2023-03-14T07:08:13;32.25;;;21.08;;
60416;SDS011;46263;44.726;10.396;2023-03-14T07:10:38;28.70;;;20.52;;
60416;SDS011;46263;44.726;10.396;2023-03-14T07:13:04;30.85;;;19.95;;
60416;SDS011;46263;44.726;10.396;2023-03-14T07:15:29;34.28;;;21.25;;
60416;SDS011;46263;44.726;10.396;2023-03-14T07:17:55;32.35;;;21.63;;
60416;SDS011;46263;44.726;10.396;2023-03-14T07:20:21;31.42;;;20.70;;
60416;SDS011;46263;44.726;10.396;2023-03-14T07:22:49;28.13;;;20.75;;
60416;SDS011;46263;44.726;10.396;2023-03-14T07:25:15;27.98;;;21.05;;
60416;SDS011;46263;44.726;10.396;2023-03-14T07:27:44;28.42;;;20.92;;
60416;SDS011;46263;44.726;10.396;2023-03-14T07:30:11;26.63;;;19.92;;
60416;SDS011;46263;44.726;10.396;2023-03-14T07:32:37;23.80;;;19.38;;
60416;SDS011;46263;44.726;10.396;2023-03-14T07:35:03;26.10;;;19.48;;
60416;SDS011;46263;44.726;10.396;2023-03-14T07:37:29;30.30;;;18.48;;
60416;SDS011;46263;44.726;10.396;2023-03-14T07:39:54;26.20;;;19.35;;
60416;SDS011;46263;44.726;10.396;2023-03-14T07:42:20;26.05;;;20.15;;
60416;SDS011;46263;44.726;10.396;2023-03-14T07:44:45;25.95;;;18.90;;
60416;SDS011;46263;44.726;10.396;2023-03-14T07:47:11;26.38;;;18.98;;
60416;SDS011;46263;44.726;10.396;2023-03-14T07:49:36;24.70;;;18.48;;
60416;SDS011;46263;44.726;10.396;2023-03-14T07:52:02;24.85;;;17.35;;
60416;SDS011;46263;44.726;10.396;2023-03-14T07:54:27;25.63;;;17.33;;
60416;SDS011;46263;44.726;10.396;2023-03-14T07:56:53;25.02;;;17.88;;
60416;SDS011;46263;44.726;10.396;2023-03-14T07:59:18;23.85;;;17.48;;
60416;SDS011;46263;44.726;10.396;2023-03-14T08:01:44;23.90;;;17.48;;
60416;SDS011;46263;44.726;10.396;2023-03-14T08:04:10;25.15;;;17.65;;
60416;SDS011;46263;44.726;10.396;2023-03-14T08:06:36;22.33;;;16.42;;
60416;SDS011;46263;44.726;10.396;2023-03-14T08:09:02;24.45;;;16.42;;
60416;SDS011;46263;44.726;10.396;2023-03-14T08:11:29;23.05;;;16.23;;
60416;SDS011;46263;44.726;10.396;2023-03-14T08:13:54;25.45;;;15.90;;
60416;SDS011;46263;44.726;10.396;2023-03-14T08:16:20;24.70;;;16.63;;
60416;SDS011;46263;44.726;10.396;2023-03-14T08:18:46;28.00;;;16.45;;
60416;SDS011;46263;44.726;10.396;2023-03-14T08:21:12;23.25;;;14.90;;
60416;SDS011;46263;44.726;10.396;2023-03-14T08:23:37;20.50;;;13.88;;
60416;SDS011;46263;44.726;10.396;2023-03-14T08:26:03;24.63;;;15.48;;
60416;SDS011;46263;44.726;10.396;2023-03-14T08:28:28;21.92;;;15.18;;
60416;SDS011;46263;44.726;10.396;2023-03-14T08:30:59;21.42;;;15.07;;
60416;SDS011;46263;44.726;10.396;2023-03-14T08:33:25;19.90;;;14.13;;
60416;SDS011;46263;44.726;10.396;2023-03-14T08:35:52;24.42;;;14.65;;
60416;SDS011;46263;44.726;10.396;2023-03-14T08:38:22;25.73;;;13.95;;
60416;SDS011;46263;44.726;10.396;2023-03-14T08:40:47;19.40;;;13.77;;
60416;SDS011;46263;44.726;10.396;2023-03-14T08:43:14;20.73;;;15.00;;
60416;SDS011;46263;44.726;10.396;2023-03-14T08:45:39;24.45;;;15.65;;
60416;SDS011;46263;44.726;10.396;2023-03-14T08:48:05;20.42;;;14.45;;
60416;SDS011;46263;44.726;10.396;2023-03-14T08:50:30;22.77;;;14.55;;
60416;SDS011;46263;44.726;10.396;2023-03-14T08:52:56;19.33;;;14.32;;
60416;SDS011;46263;44.726;10.396;2023-03-14T08:55:24;19.30;;;14.55;;
60416;SDS011;46263;44.726;10.396;2023-03-14T08:57:52;20.13;;;12.73;;
60416;SDS011;46263;44.726;10.396;2023-03-14T09:00:18;20.58;;;13.00;;
60416;SDS011;46263;44.726;10.396;2023-03-14T09:02:44;17.20;;;12.77;;
60416;SDS011;46263;44.726;10.396;2023-03-14T09:05:09;21.27;;;13.07;;
60416;SDS011;46263;44.726;10.396;2023-03-14T09:07:36;20.65;;;13.70;;
60416;SDS011;46263;44.726;10.396;2023-03-14T09:10:02;19.67;;;13.45;;
60416;SDS011;46263;44.726;10.396;2023-03-14T09:12:28;19.35;;;13.40;;
60416;SDS011;46263;44.726;10.396;2023-03-14T09:14:54;18.63;;;13.90;;
60416;SDS011;46263;44.726;10.396;2023-03-14T09:17:19;16.88;;;12.98;;
60416;SDS011;46263;44.726;10.396;2023-03-14T09:19:44;16.30;;;13.38;;
60416;SDS011;46263;44.726;10.396;2023-03-14T09:22:10;18.58;;;12.90;;
60416;SDS011;46263;44.726;10.396;2023-03-14T09:24:35;16.85;;;11.95;;
60416;SDS011;46263;44.726;10.396;2023-03-14T09:27:01;16.77;;;13.10;;
60416;SDS011;46263;44.726;10.396;2023-03-14T09:29:27;19.00;;;12.65;;
60416;SDS011;46263;44.726;10.396;2023-03-14T09:31:53;19.15;;;12.27;;
60416;SDS011;46263;44.726;10.396;2023-03-14T09:34:19;21.52;;;12.63;;
60416;SDS011;46263;44.726;10.396;2023-03-14T09:36:44;18.30;;;11.82;;
60416;SDS011;46263;44.726;10.396;2023-03-14T09:39:10;18.17;;;11.50;;
60416;SDS011;46263;44.726;10.396;2023-03-14T09:41:37;15.38;;;11.48;;
60416;SDS011;46263;44.726;10.396;2023-03-14T09:44:08;16.73;;;11.98;;
60416;SDS011;46263;44.726;10.396;2023-03-14T09:46:38;19.40;;;12.00;;
60416;SDS011;46263;44.726;10.396;2023-03-14T09:49:50;17.45;;;12.73;;
60416;SDS011;46263;44.726;10.396;2023-03-14T09:52:04;17.42;;;12.65;;
60416;SDS011;46263;44.726;10.396;2023-03-14T09:54:39;19.95;;;13.80;;
60416;SDS011;46263;44.726;10.396;2023-03-14T09:57:17;18.10;;;13.60;;
60416;SDS011;46263;44.726;10.396;2023-03-14T09:59:44;16.33;;;11.70;;
60416;SDS011;46263;44.726;10.396;2023-03-14T10:02:13;14.70;;;12.10;;
60416;SDS011;46263;44.726;10.396;2023-03-14T10:04:40;19.55;;;12.40;;
60416;SDS011;46263;44.726;10.396;2023-03-14T10:07:16;17.35;;;12.48;;
60416;SDS011;46263;44.726;10.396;2023-03-14T10:09:52;18.20;;;12.68;;
60416;SDS011;46263;44.726;10.396;2023-03-14T10:12:18;18.25;;;12.73;;
60416;SDS011;46263;44.726;10.396;2023-03-14T10:14:46;19.50;;;12.93;;
60416;SDS011;46263;44.726;10.396;2023-03-14T10:17:18;18.30;;;12.48;;
60416;SDS011;46263;44.726;10.396;2023-03-14T10:19:52;18.55;;;13.32;;
60416;SDS011;46263;44.726;10.396;2023-03-14T10:22:23;17.92;;;13.52;;
60416;SDS011;46263;44.726;10.396;2023-03-14T10:24:51;17.30;;;13.05;;
60416;SDS011;46263;44.726;10.396;2023-03-14T10:27:32;18.02;;;13.20;;
60416;SDS011;46263;44.726;10.396;2023-03-14T10:30:00;18.05;;;12.52;;
60416;SDS011;46263;44.726;10.396;2023-03-14T10:32:36;14.80;;;10.88;;
60416;SDS011;46263;44.726;10.396;2023-03-14T10:37:57;19.70;;;12.25;;
60416;SDS011;46263;44.726;10.396;2023-03-14T10:40:33;16.67;;;11.98;;
60416;SDS011;46263;44.726;10.396;2023-03-14T10:43:06;21.65;;;13.00;;
60416;SDS011;46263;44.726;10.396;2023-03-14T10:45:39;15.50;;;10.93;;
60416;SDS011;46263;44.726;10.396;2023-03-14T10:50:55;15.68;;;10.32;;
60416;SDS011;46263;44.726;10.396;2023-03-14T10:53:23;13.27;;;10.15;;
60416;SDS011;46263;44.726;10.396;2023-03-14T10:55:49;14.95;;;9.55;;
60416;SDS011;46263;44.726;10.396;2023-03-14T11:00:43;13.20;;;8.63;;
60416;SDS011;46263;44.726;10.396;2023-03-14T11:03:14;9.80;;;7.57;;
60416;SDS011;46263;44.726;10.396;2023-03-14T11:05:53;15.80;;;11.57;;
60416;SDS011;46263;44.726;10.396;2023-03-14T11:08:36;14.00;;;8.88;;
60416;SDS011;46263;44.726;10.396;2023-03-14T11:16:22;13.70;;;8.25;;
60416;SDS011;46263;44.726;10.396;2023-03-14T11:32:27;9.27;;;7.55;;
60416;SDS011;46263;44.726;10.396;2023-03-14T11:35:41;8.73;;;6.97;;
60416;SDS011;46263;44.726;10.396;2023-03-14T11:38:19;12.25;;;7.60;;
60416;SDS011;46263;44.726;10.396;2023-03-14T11:40:58;10.35;;;7.88;;
60416;SDS011;46263;44.726;10.396;2023-03-14T11:43:40;11.48;;;7.28;;
60416;SDS011;46263;44.726;10.396;2023-03-14T11:48:45;9.98;;;7.03;;
60416;SDS011;46263;44.726;10.396;2023-03-14T11:51:33;11.90;;;6.97;;
60416;SDS011;46263;44.726;10.396;2023-03-14T11:56:45;10.20;;;6.70;;
60416;SDS011;46263;44.726;10.396;2023-03-14T12:07:31;11.57;;;7.68;;
60416;SDS011;46263;44.726;10.396;2023-03-14T12:10:05;11.07;;;7.13;;
60416;SDS011;46263;44.726;10.396;2023-03-14T12:12:30;10.82;;;7.60;;
60416;SDS011;46263;44.726;10.396;2023-03-14T12:14:58;10.30;;;7.75;;
60416;SDS011;46263;44.726;10.396;2023-03-14T12:17:40;11.73;;;8.00;;
60416;SDS011;46263;44.726;10.396;2023-03-14T12:22:43;12.68;;;8.18;;
60416;SDS011;46263;44.726;10.396;2023-03-14T12:30:33;11.93;;;7.65;;
60416;SDS011;46263;44.726;10.396;2023-03-14T12:35:42;12.82;;;8.57;;
60416;SDS011;46263;44.726;10.396;2023-03-14T12:38:09;13.52;;;7.40;;
60416;SDS011;46263;44.726;10.396;2023-03-14T12:40:49;15.80;;;8.63;;
60416;SDS011;46263;44.726;10.396;2023-03-14T12:43:24;14.20;;;9.70;;
60416;SDS011;46263;44.726;10.396;2023-03-14T12:48:37;11.52;;;8.15;;
60416;SDS011;46263;44.726;10.396;2023-03-14T12:51:05;10.32;;;7.95;;
60416;SDS011;46263;44.726;10.396;2023-03-14T12:56:34;12.10;;;8.02;;
60416;SDS011;46263;44.726;10.396;2023-03-14T13:01:44;10.32;;;7.82;;
60416;SDS011;46263;44.726;10.396;2023-03-14T13:04:32;10.63;;;7.40;;
60416;SDS011;46263;44.726;10.396;2023-03-14T13:07:01;11.43;;;7.22;;
60416;SDS011;46263;44.726;10.396;2023-03-14T13:11:54;12.82;;;8.05;;
60416;SDS011;46263;44.726;10.396;2023-03-14T13:14:20;11.57;;;7.55;;
60416;SDS011;46263;44.726;10.396;2023-03-14T13:16:49;8.00;;;6.70;;
60416;SDS011;46263;44.726;10.396;2023-03-14T13:19:24;8.02;;;6.03;;
60416;SDS011;46263;44.726;10.396;2023-03-14T13:22:03;8.52;;;6.38;;
60416;SDS011;46263;44.726;10.396;2023-03-14T13:24:32;6.38;;;5.47;;
60416;SDS011;46263;44.726;10.396;2023-03-14T13:26:58;8.55;;;5.80;;
60416;SDS011;46263;44.726;10.396;2023-03-14T13:29:28;8.65;;;5.75;;
60416;SDS011;46263;44.726;10.396;2023-03-14T13:32:02;7.70;;;5.88;;
60416;SDS011;46263;44.726;10.396;2023-03-14T13:34:38;9.68;;;5.57;;
60416;SDS011;46263;44.726;10.396;2023-03-14T13:37:12;7.20;;;5.90;;
60416;SDS011;46263;44.726;10.396;2023-03-14T13:39:41;6.38;;;5.78;;
60416;SDS011;46263;44.726;10.396;2023-03-14T13:42:10;7.47;;;5.45;;
60416;SDS011;46263;44.726;10.396;2023-03-14T13:44:40;10.95;;;5.45;;
60416;SDS011;46263;44.726;10.396;2023-03-14T13:47:09;7.90;;;5.13;;
60416;SDS011;46263;44.726;10.396;2023-03-14T13:49:46;8.13;;;5.60;;
60416;SDS011;46263;44.726;10.396;2023-03-14T13:52:23;10.52;;;5.30;;
60416;SDS011;46263;44.726;10.396;2023-03-14T13:54:56;9.95;;;5.47;;
60416;SDS011;46263;44.726;10.396;2023-03-14T13:57:23;5.95;;;4.97;;
60416;SDS011;46263;44.726;10.396;2023-03-14T13:59:59;8.60;;;5.47;;
60416;SDS011;46263;44.726;10.396;2023-03-14T14:02:26;7.78;;;5.60;;
60416;SDS011;46263;44.726;10.396;2023-03-14T14:04:53;9.32;;;5.90;;
60416;SDS011;46263;44.726;10.396;2023-03-14T14:07:18;7.55;;;5.53;;
60416;SDS011;46263;44.726;10.396;2023-03-14T14:09:46;6.97;;;6.10;;
60416;SDS011;46263;44.726;10.396;2023-03-14T14:14:51;7.00;;;6.13;;
60416;SDS011;46263;44.726;10.396;2023-03-14T14:17:26;7.15;;;5.32;;
60416;SDS011;46263;44.726;10.396;2023-03-14T14:19:57;7.00;;;6.07;;
60416;SDS011;46263;44.726;10.396;2023-03-14T14:22:25;7.93;;;5.57;;
60416;SDS011;46263;44.726;10.396;2023-03-14T14:24:52;7.00;;;5.75;;
60416;SDS011;46263;44.726;10.396;2023-03-14T14:27:19;7.07;;;5.95;;
60416;SDS011;46263;44.726;10.396;2023-03-14T14:29:59;9.40;;;5.72;;
60416;SDS011;46263;44.726;10.396;2023-03-14T14:32:33;6.82;;;5.60;;
60416;SDS011;46263;44.726;10.396;2023-03-14T14:35:01;8.38;;;6.03;;
60416;SDS011;46263;44.726;10.396;2023-03-14T14:37:30;8.25;;;6.22;;
60416;SDS011;46263;44.726;10.396;2023-03-14T14:40:06;8.77;;;5.95;;
60416;SDS011;46263;44.726;10.396;2023-03-14T14:42:34;9.00;;;6.15;;
60416;SDS011;46263;44.726;10.396;2023-03-14T14:45:03;9.80;;;5.45;;
60416;SDS011;46263;44.726;10.396;2023-03-14T14:47:30;7.57;;;5.80;;
60416;SDS011;46263;44.726;10.396;2023-03-14T14:49:58;7.47;;;5.53;;
60416;SDS011;46263;44.726;10.396;2023-03-14T14:52:37;8.90;;;6.53;;
60416;SDS011;46263;44.726;10.396;2023-03-14T14:55:13;6.18;;;5.20;;
60416;SDS011;46263;44.726;10.396;2023-03-14T14:57:48;7.38;;;6.03;;
60416;SDS011;46263;44.726;10.396;2023-03-14T15:00:20;8.25;;;6.10;;
60416;SDS011;46263;44.726;10.396;2023-03-14T15:02:48;6.93;;;5.97;;
60416;SDS011;46263;44.726;10.396;2023-03-14T15:05:24;7.57;;;5.70;;
60416;SDS011;46263;44.726;10.396;2023-03-14T15:07:52;8.65;;;5.85;;
60416;SDS011;46263;44.726;10.396;2023-03-14T15:10:18;9.60;;;5.82;;
60416;SDS011;46263;44.726;10.396;2023-03-14T15:12:46;6.88;;;5.57;;
60416;SDS011;46263;44.726;10.396;2023-03-14T15:15:14;8.27;;;5.35;;
60416;SDS011;46263;44.726;10.396;2023-03-14T15:17:42;9.30;;;6.13;;
60416;SDS011;46263;44.726;10.396;2023-03-14T15:20:12;7.78;;;5.75;;
60416;SDS011;46263;44.726;10.396;2023-03-14T15:22:40;9.63;;;6.40;;
60416;SDS011;46263;44.726;10.396;2023-03-14T15:25:06;8.40;;;5.90;;
60416;SDS011;46263;44.726;10.396;2023-03-14T15:27:33;7.15;;;6.20;;
60416;SDS011;46263;44.726;10.396;2023-03-14T15:29:59;9.05;;;5.97;;
60416;SDS011;46263;44.726;10.396;2023-03-14T15:32:25;8.15;;;6.60;;
60416;SDS011;46263;44.726;10.396;2023-03-14T15:34:52;7.40;;;5.82;;
60416;SDS011;46263;44.726;10.396;2023-03-14T15:37:19;7.82;;;5.72;;
60416;SDS011;46263;44.726;10.396;2023-03-14T15:39:45;10.00;;;5.57;;
60416;SDS011;46263;44.726;10.396;2023-03-14T15:42:11;9.18;;;5.93;;
60416;SDS011;46263;44.726;10.396;2023-03-14T15:44:37;11.63;;;6.35;;
60416;SDS011;46263;44.726;10.396;2023-03-14T15:47:03;9.18;;;6.57;;